sensor_id;sensor_type;location;lat;lon;timestamp;pressure;altitude;pressure_sealevel;temperature;humidity
31775;BME280;66189;49.000;11.640;2023-04-30T00:00:14;96202.91;;;8.59;80.90
31775;BME280;66189;49.000;11.640;2023-04-30T00:02:14;96211.41;;;8.61;80.79
31775;BME280;66189;49.000;11.640;2023-04-30T00:04:14;96208.72;;;8.61;80.61
31775;BME280;66189;49.000;11.640;2023-04-30T00:06:14;96212.53;;;8.60;80.60
31775;BME280;66189;49.000;11.640;2023-04-30T00:08:15;96210.94;;;8.59;80.67
31775;BME280;66189;49.000;11.640;2023-04-30T00:10:15;96205.59;;;8.59;80.54
31775;BME280;66189;49.000;11.640;2023-04-30T00:12:15;96209.84;;;8.60;80.07
31775;BME280;66189;49.000;11.640;2023-04-30T00:14:15;96201.78;;;8.60;80.17
31775;BME280;66189;49.000;11.640;2023-04-30T00:16:16;96200.34;;;8.63;80.21
31775;BME280;66189;49.000;11.640;2023-04-30T00:18:18;96204.91;;;8.62;79.83
31775;BME280;66189;49.000;11.640;2023-04-30T00:20:19;96207.94;;;8.61;80.00
31775;BME280;66189;49.000;11.640;2023-04-30T00:22:19;96205.59;;;8.59;80.06
31775;BME280;66189;49.000;11.640;2023-04-30T00:24:19;96207.94;;;8.61;79.90
31775;BME280;66189;49.000;11.640;2023-04-30T00:26:19;96209.41;;;8.58;80.08
31775;BME280;66189;49.000;11.640;2023-04-30T00:28:22;96210.50;;;8.57;80.15
31775;BME280;66189;49.000;11.640;2023-04-30T00:30:22;96211.28;;;8.58;80.36
31775;BME280;66189;49.000;11.640;2023-04-30T00:32:22;96218.56;;;8.57;79.98
31775;BME280;66189;49.000;11.640;2023-04-30T00:34:23;96216.31;;;8.59;79.68
31775;BME280;66189;49.000;11.640;2023-04-30T00:36:23;96213.19;;;8.57;79.79
31775;BME280;66189;49.000;11.640;2023-04-30T00:38:23;96215.53;;;8.59;79.68
31775;BME280;66189;49.000;11.640;2023-04-30T00:40:24;96210.84;;;8.56;79.45
31775;BME280;66189;49.000;11.640;2023-04-30T00:42:24;96220.47;;;8.57;79.53
31775;BME280;66189;49.000;11.640;2023-04-30T00:44:25;96222.81;;;8.58;79.78
31775;BME280;66189;49.000;11.640;2023-04-30T00:46:25;96218.22;;;8.59;79.25
31775;BME280;66189;49.000;11.640;2023-04-30T00:48:25;96221.69;;;8.59;79.60
31775;BME280;66189;49.000;11.640;2023-04-30T00:50:27;96227.84;;;8.60;79.16
31775;BME280;66189;49.000;11.640;2023-04-30T00:52:28;96223.25;;;8.60;79.21
31775;BME280;66189;49.000;11.640;2023-04-30T00:54:28;96230.19;;;8.61;79.33
31775;BME280;66189;49.000;11.640;2023-04-30T00:56:28;96230.97;;;8.62;79.15
31775;BME280;66189;49.000;11.640;2023-04-30T00:58:30;96232.88;;;8.61;79.23
31775;BME280;66189;49.000;11.640;2023-04-30T01:00:30;96243.94;;;8.60;79.71
31775;BME280;66189;49.000;11.640;2023-04-30T01:02:31;96238.91;;;8.58;80.36
31775;BME280;66189;49.000;11.640;2023-04-30T01:04:31;96241.91;;;8.57;80.79
31775;BME280;66189;49.000;11.640;2023-04-30T01:06:32;96238.44;;;8.56;80.68
31775;BME280;66189;49.000;11.640;2023-04-30T01:08:33;96240.78;;;8.58;80.81
31775;BME280;66189;49.000;11.640;2023-04-30T01:13:02;96249.28;;;8.60;80.74
31775;BME280;66189;49.000;11.640;2023-04-30T01:15:26;96241.59;;;8.58;80.73
31775;BME280;66189;49.000;11.640;2023-04-30T01:19:35;96244.94;;;8.55;80.29
31775;BME280;66189;49.000;11.640;2023-04-30T01:21:38;96242.03;;;8.48;81.22
31775;BME280;66189;49.000;11.640;2023-04-30T01:23:47;96239.78;;;8.50;81.21
31775;BME280;66189;49.000;11.640;2023-04-30T01:25:59;96241.44;;;8.42;81.56
31775;BME280;66189;49.000;11.640;2023-04-30T01:28:09;96237.56;;;8.40;82.23
31775;BME280;66189;49.000;11.640;2023-04-30T01:30:12;96244.34;;;8.37;82.19
31775;BME280;66189;49.000;11.640;2023-04-30T01:32:13;96240.22;;;8.40;81.88
31775;BME280;66189;49.000;11.640;2023-04-30T01:34:13;96252.06;;;8.39;81.98
31775;BME280;66189;49.000;11.640;2023-04-30T01:36:18;96248.63;;;8.38;82.26
31775;BME280;66189;49.000;11.640;2023-04-30T01:38:44;96250.06;;;8.35;81.72
31775;BME280;66189;49.000;11.640;2023-04-30T01:43:18;96252.72;;;8.35;81.38
31775;BME280;66189;49.000;11.640;2023-04-30T01:45:21;96260.78;;;8.35;81.20
31775;BME280;66189;49.000;11.640;2023-04-30T01:49:50;96249.38;;;8.39;81.01
31775;BME280;66189;49.000;11.640;2023-04-30T01:52:04;96254.28;;;8.36;81.04
31775;BME280;66189;49.000;11.640;2023-04-30T01:54:29;96257.28;;;8.35;80.98
31775;BME280;66189;49.000;11.640;2023-04-30T01:56:34;96260.97;;;8.30;81.51
31775;BME280;66189;49.000;11.640;2023-04-30T01:58:37;96249.06;;;8.28;80.86
31775;BME280;66189;49.000;11.640;2023-04-30T02:00:39;96255.75;;;8.34;81.16
31775;BME280;66189;49.000;11.640;2023-04-30T02:02:40;96261.09;;;8.34;81.20
31775;BME280;66189;49.000;11.640;2023-04-30T02:04:40;96255.28;;;8.32;80.56
31775;BME280;66189;49.000;11.640;2023-04-30T02:06:41;96256.09;;;8.32;80.65
31775;BME280;66189;49.000;11.640;2023-04-30T02:08:41;96264.56;;;8.34;80.58
31775;BME280;66189;49.000;11.640;2023-04-30T02:10:41;96261.44;;;8.32;80.71
31775;BME280;66189;49.000;11.640;2023-04-30T02:12:42;96257.97;;;8.32;80.36
31775;BME280;66189;49.000;11.640;2023-04-30T02:14:42;96259.53;;;8.33;80.45
31775;BME280;66189;49.000;11.640;2023-04-30T02:16:42;96259.97;;;8.35;80.16
31775;BME280;66189;49.000;11.640;2023-04-30T02:18:43;96257.19;;;8.31;79.78
31775;BME280;66189;49.000;11.640;2023-04-30T02:20:43;96251.41;;;8.29;80.29
31775;BME280;66189;49.000;11.640;2023-04-30T02:22:45;96258.31;;;8.30;80.32
31775;BME280;66189;49.000;11.640;2023-04-30T02:24:45;96254.75;;;8.26;80.58
31775;BME280;66189;49.000;11.640;2023-04-30T02:26:45;96257.88;;;8.28;80.35
31775;BME280;66189;49.000;11.640;2023-04-30T02:28:46;96260.44;;;8.25;80.85
31775;BME280;66189;49.000;11.640;2023-04-30T02:30:46;96261.22;;;8.25;80.67
31775;BME280;66189;49.000;11.640;2023-04-30T02:32:46;96261.22;;;8.25;80.44
31775;BME280;66189;49.000;11.640;2023-04-30T02:34:47;96261.97;;;8.26;80.39
31775;BME280;66189;49.000;11.640;2023-04-30T02:36:47;96263.22;;;8.28;80.39
31775;BME280;66189;49.000;11.640;2023-04-30T02:38:48;96261.66;;;8.27;80.45
31775;BME280;66189;49.000;11.640;2023-04-30T02:40:48;96265.00;;;8.24;80.63
31775;BME280;66189;49.000;11.640;2023-04-30T02:42:48;96272.72;;;8.26;80.19
31775;BME280;66189;49.000;11.640;2023-04-30T02:44:49;96268.81;;;8.23;80.64
31775;BME280;66189;49.000;11.640;2023-04-30T02:46:49;96269.00;;;8.18;80.73
31775;BME280;66189;49.000;11.640;2023-04-30T02:48:49;96267.91;;;8.19;80.36
31775;BME280;66189;49.000;11.640;2023-04-30T02:50:50;96270.25;;;8.21;80.38
31775;BME280;66189;49.000;11.640;2023-04-30T02:52:50;96272.16;;;8.20;80.66
31775;BME280;66189;49.000;11.640;2023-04-30T02:54:51;96273.72;;;8.21;80.73
31775;BME280;66189;49.000;11.640;2023-04-30T02:56:51;96272.91;;;8.08;80.88
31775;BME280;66189;49.000;11.640;2023-04-30T02:58:52;96279.03;;;7.96;81.27
31775;BME280;66189;49.000;11.640;2023-04-30T03:00:52;96277.44;;;7.83;82.25
31775;BME280;66189;49.000;11.640;2023-04-30T03:02:53;96277.25;;;7.88;82.18
31775;BME280;66189;49.000;11.640;2023-04-30T03:04:53;96273.00;;;7.87;82.20
31775;BME280;66189;49.000;11.640;2023-04-30T03:06:53;96268.75;;;7.86;81.88
31775;BME280;66189;49.000;11.640;2023-04-30T03:08:54;96274.28;;;7.69;82.68
31775;BME280;66189;49.000;11.640;2023-04-30T03:10:54;96264.94;;;7.75;83.07
31775;BME280;66189;49.000;11.640;2023-04-30T03:12:54;96269.19;;;7.76;82.63
31775;BME280;66189;49.000;11.640;2023-04-30T03:14:55;96268.03;;;7.77;82.09
31775;BME280;66189;49.000;11.640;2023-04-30T03:16:55;96266.88;;;7.87;82.02
31775;BME280;66189;49.000;11.640;2023-04-30T03:18:55;96270.09;;;7.92;82.00
31775;BME280;66189;49.000;11.640;2023-04-30T03:20:56;96267.06;;;7.94;81.77
31775;BME280;66189;49.000;11.640;2023-04-30T03:22:56;96272.78;;;7.92;81.69
31775;BME280;66189;49.000;11.640;2023-04-30T03:24:56;96271.44;;;7.98;81.65
31775;BME280;66189;49.000;11.640;2023-04-30T03:26:57;96274.59;;;8.00;80.84
31775;BME280;66189;49.000;11.640;2023-04-30T03:28:57;96269.66;;;8.03;80.96
31775;BME280;66189;49.000;11.640;2023-04-30T03:31:00;96267.13;;;8.06;80.94
31775;BME280;66189;49.000;11.640;2023-04-30T03:33:04;96264.31;;;8.03;81.01
31775;BME280;66189;49.000;11.640;2023-04-30T03:35:07;96266.31;;;8.06;80.89
31775;BME280;66189;49.000;11.640;2023-04-30T03:37:07;96265.88;;;8.04;80.62
31775;BME280;66189;49.000;11.640;2023-04-30T03:39:08;96256.50;;;8.10;80.28
31775;BME280;66189;49.000;11.640;2023-04-30T03:41:08;96258.84;;;8.11;80.39
31775;BME280;66189;49.000;11.640;2023-04-30T03:43:09;96263.31;;;8.07;80.58
31775;BME280;66189;49.000;11.640;2023-04-30T03:45:09;96256.28;;;8.03;80.84
31775;BME280;66189;49.000;11.640;2023-04-30T03:47:10;96261.31;;;8.04;80.73
31775;BME280;66189;49.000;11.640;2023-04-30T03:49:10;96254.16;;;8.08;80.46
31775;BME280;66189;49.000;11.640;2023-04-30T03:51:11;96255.28;;;8.07;80.34
31775;BME280;66189;49.000;11.640;2023-04-30T03:53:11;96261.31;;;8.04;80.46
31775;BME280;66189;49.000;11.640;2023-04-30T03:55:12;96246.78;;;8.05;80.46
31775;BME280;66189;49.000;11.640;2023-04-30T03:57:12;96250.72;;;8.08;80.74
31775;BME280;66189;49.000;11.640;2023-04-30T03:59:13;96253.16;;;8.00;80.55
31775;BME280;66189;49.000;11.640;2023-04-30T04:01:13;96252.72;;;8.11;80.42
31775;BME280;66189;49.000;11.640;2023-04-30T04:03:14;96248.72;;;8.17;80.43
31775;BME280;66189;49.000;11.640;2023-04-30T04:05:16;96252.25;;;8.09;80.20
31775;BME280;66189;49.000;11.640;2023-04-30T04:07:17;96250.59;;;8.04;80.87
31775;BME280;66189;49.000;11.640;2023-04-30T04:09:19;96257.50;;;8.05;80.77
31775;BME280;66189;49.000;11.640;2023-04-30T04:11:19;96253.72;;;8.06;80.46
31775;BME280;66189;49.000;11.640;2023-04-30T04:13:20;96259.38;;;8.05;80.66
31775;BME280;66189;49.000;11.640;2023-04-30T04:15:20;96262.41;;;8.03;80.36
31775;BME280;66189;49.000;11.640;2023-04-30T04:17:21;96264.44;;;8.06;80.03
31775;BME280;66189;49.000;11.640;2023-04-30T04:19:21;96259.97;;;8.10;79.83
31775;BME280;66189;49.000;11.640;2023-04-30T04:21:21;96262.28;;;7.99;80.45
31775;BME280;66189;49.000;11.640;2023-04-30T04:23:21;96272.56;;;7.97;80.33
31775;BME280;66189;49.000;11.640;2023-04-30T04:25:22;96264.66;;;8.01;80.50
31775;BME280;66189;49.000;11.640;2023-04-30T04:27:24;96270.44;;;8.03;80.71
31775;BME280;66189;49.000;11.640;2023-04-30T04:29:25;96270.09;;;8.05;80.63
31775;BME280;66189;49.000;11.640;2023-04-30T04:31:25;96271.00;;;8.09;80.67
31775;BME280;66189;49.000;11.640;2023-04-30T04:33:26;96275.28;;;8.10;80.48
31775;BME280;66189;49.000;11.640;2023-04-30T04:35:26;96277.72;;;8.15;80.41
31775;BME280;66189;49.000;11.640;2023-04-30T04:37:27;96274.03;;;8.19;79.89
31775;BME280;66189;49.000;11.640;2023-04-30T04:39:27;96275.94;;;8.19;79.80
31775;BME280;66189;49.000;11.640;2023-04-30T04:41:30;96285.56;;;8.20;79.31
31775;BME280;66189;49.000;11.640;2023-04-30T04:43:37;96287.56;;;8.23;79.48
31775;BME280;66189;49.000;11.640;2023-04-30T04:45:38;96283.44;;;8.26;80.06
31775;BME280;66189;49.000;11.640;2023-04-30T04:47:39;96281.22;;;8.28;79.97
31775;BME280;66189;49.000;11.640;2023-04-30T04:49:40;96278.19;;;8.29;79.86
31775;BME280;66189;49.000;11.640;2023-04-30T04:51:42;96283.66;;;8.33;79.95
31775;BME280;66189;49.000;11.640;2023-04-30T04:53:42;96288.69;;;8.34;80.08
31775;BME280;66189;49.000;11.640;2023-04-30T04:55:43;96288.59;;;8.31;80.38
31775;BME280;66189;49.000;11.640;2023-04-30T04:57:44;96286.00;;;8.34;79.84
31775;BME280;66189;49.000;11.640;2023-04-30T04:59:44;96288.16;;;8.41;79.91
31775;BME280;66189;49.000;11.640;2023-04-30T05:01:44;96288.03;;;8.38;80.23
31775;BME280;66189;49.000;11.640;2023-04-30T05:03:45;96281.22;;;8.40;79.99
31775;BME280;66189;49.000;11.640;2023-04-30T05:05:45;96287.81;;;8.43;79.14
31775;BME280;66189;49.000;11.640;2023-04-30T05:07:46;96283.31;;;8.34;79.52
31775;BME280;66189;49.000;11.640;2023-04-30T05:09:46;96290.38;;;8.39;79.53
31775;BME280;66189;49.000;11.640;2023-04-30T05:11:46;96284.34;;;8.30;79.40
31775;BME280;66189;49.000;11.640;2023-04-30T05:13:48;96294.16;;;8.26;79.55
31775;BME280;66189;49.000;11.640;2023-04-30T05:15:49;96282.88;;;8.32;79.60
31775;BME280;66189;49.000;11.640;2023-04-30T05:17:50;96290.47;;;8.30;79.59
31775;BME280;66189;49.000;11.640;2023-04-30T05:19:51;96288.69;;;8.34;79.42
31775;BME280;66189;49.000;11.640;2023-04-30T05:21:51;96291.72;;;8.33;79.29
31775;BME280;66189;49.000;11.640;2023-04-30T05:23:51;96294.72;;;8.31;79.24
31775;BME280;66189;49.000;11.640;2023-04-30T05:25:52;96292.47;;;8.33;79.23
31775;BME280;66189;49.000;11.640;2023-04-30T05:27:52;96303.19;;;8.33;80.10
31775;BME280;66189;49.000;11.640;2023-04-30T05:29:52;96293.72;;;8.36;79.82
31775;BME280;66189;49.000;11.640;2023-04-30T05:31:53;96304.78;;;8.34;80.19
31775;BME280;66189;49.000;11.640;2023-04-30T05:33:53;96299.22;;;8.40;80.07
31775;BME280;66189;49.000;11.640;2023-04-30T05:35:53;96298.88;;;8.41;80.45
31775;BME280;66189;49.000;11.640;2023-04-30T05:37:54;96299.78;;;8.45;80.24
31775;BME280;66189;49.000;11.640;2023-04-30T05:39:54;96308.28;;;8.60;79.75
31775;BME280;66189;49.000;11.640;2023-04-30T05:41:54;96305.63;;;8.60;79.80
31775;BME280;66189;49.000;11.640;2023-04-30T05:43:55;96308.63;;;8.70;79.96
31775;BME280;66189;49.000;11.640;2023-04-30T05:45:55;96303.47;;;8.78;79.70
31775;BME280;66189;49.000;11.640;2023-04-30T05:47:55;96312.19;;;8.87;80.32
31775;BME280;66189;49.000;11.640;2023-04-30T05:49:56;96312.84;;;8.96;79.45
31775;BME280;66189;49.000;11.640;2023-04-30T05:51:57;96319.66;;;9.06;79.39
31775;BME280;66189;49.000;11.640;2023-04-30T05:53:57;96314.50;;;9.13;78.85
31775;BME280;66189;49.000;11.640;2023-04-30T05:55:57;96314.72;;;9.20;78.49
31775;BME280;66189;49.000;11.640;2023-04-30T05:57:58;96317.25;;;9.29;78.41
31775;BME280;66189;49.000;11.640;2023-04-30T05:59:58;96305.59;;;9.37;78.36
31775;BME280;66189;49.000;11.640;2023-04-30T06:01:58;96316.03;;;9.27;77.08
31775;BME280;66189;49.000;11.640;2023-04-30T06:03:59;96316.59;;;9.32;77.50
31775;BME280;66189;49.000;11.640;2023-04-30T06:06:00;96315.56;;;9.24;77.38
31775;BME280;66189;49.000;11.640;2023-04-30T06:08:00;96316.75;;;9.11;78.51
31775;BME280;66189;49.000;11.640;2023-04-30T06:10:01;96306.78;;;9.12;77.95
31775;BME280;66189;49.000;11.640;2023-04-30T06:12:02;96306.56;;;9.04;77.04
31775;BME280;66189;49.000;11.640;2023-04-30T06:14:03;96310.25;;;9.12;77.18
31775;BME280;66189;49.000;11.640;2023-04-30T06:16:03;96312.91;;;9.24;77.20
31775;BME280;66189;49.000;11.640;2023-04-30T06:18:04;96307.69;;;9.44;76.70
31775;BME280;66189;49.000;11.640;2023-04-30T06:20:05;96313.13;;;9.60;76.44
31775;BME280;66189;49.000;11.640;2023-04-30T06:22:06;96309.84;;;9.67;76.25
31775;BME280;66189;49.000;11.640;2023-04-30T06:24:06;96311.03;;;9.82;75.89
31775;BME280;66189;49.000;11.640;2023-04-30T06:26:06;96316.47;;;9.85;75.56
31775;BME280;66189;49.000;11.640;2023-04-30T06:28:07;96314.69;;;9.89;74.43
31775;BME280;66189;49.000;11.640;2023-04-30T06:30:09;96311.75;;;9.94;74.94
31775;BME280;66189;49.000;11.640;2023-04-30T06:32:09;96311.16;;;10.01;74.52
31775;BME280;66189;49.000;11.640;2023-04-30T06:34:09;96317.22;;;9.98;74.23
31775;BME280;66189;49.000;11.640;2023-04-30T06:36:09;96319.41;;;10.08;72.52
31775;BME280;66189;49.000;11.640;2023-04-30T06:38:10;96320.09;;;10.05;71.91
31775;BME280;66189;49.000;11.640;2023-04-30T06:40:10;96318.03;;;10.14;73.94
31775;BME280;66189;49.000;11.640;2023-04-30T06:42:10;96314.66;;;10.18;72.66
31775;BME280;66189;49.000;11.640;2023-04-30T06:44:11;96317.34;;;10.18;71.57
31775;BME280;66189;49.000;11.640;2023-04-30T06:46:12;96313.63;;;10.22;73.27
31775;BME280;66189;49.000;11.640;2023-04-30T06:48:14;96316.59;;;10.33;72.29
31775;BME280;66189;49.000;11.640;2023-04-30T06:50:14;96311.66;;;10.35;73.84
31775;BME280;66189;49.000;11.640;2023-04-30T06:52:14;96319.53;;;10.44;72.72
31775;BME280;66189;49.000;11.640;2023-04-30T06:54:15;96323.88;;;10.48;73.09
31775;BME280;66189;49.000;11.640;2023-04-30T06:56:15;96323.28;;;10.55;72.84
31775;BME280;66189;49.000;11.640;2023-04-30T06:58:15;96314.56;;;10.78;73.20
31775;BME280;66189;49.000;11.640;2023-04-30T07:00:16;96315.63;;;10.73;73.13
31775;BME280;66189;49.000;11.640;2023-04-30T07:02:16;96324.81;;;10.88;71.86
31775;BME280;66189;49.000;11.640;2023-04-30T07:04:17;96314.97;;;10.96;72.47
31775;BME280;66189;49.000;11.640;2023-04-30T07:06:17;96322.63;;;10.94;70.75
31775;BME280;66189;49.000;11.640;2023-04-30T07:08:18;96315.50;;;11.01;70.74
31775;BME280;66189;49.000;11.640;2023-04-30T07:10:18;96315.84;;;11.00;70.23
31775;BME280;66189;49.000;11.640;2023-04-30T07:12:19;96322.56;;;11.26;69.98
31775;BME280;66189;49.000;11.640;2023-04-30T07:14:20;96321.91;;;11.32;69.69
31775;BME280;66189;49.000;11.640;2023-04-30T07:16:20;96318.28;;;11.25;66.61
31775;BME280;66189;49.000;11.640;2023-04-30T07:18:21;96319.66;;;11.34;68.19
31775;BME280;66189;49.000;11.640;2023-04-30T07:20:21;96318.88;;;11.53;68.64
31775;BME280;66189;49.000;11.640;2023-04-30T07:22:21;96310.59;;;11.62;66.53
31775;BME280;66189;49.000;11.640;2023-04-30T07:24:22;96316.19;;;11.73;67.37
31775;BME280;66189;49.000;11.640;2023-04-30T07:26:22;96313.91;;;11.75;64.87
31775;BME280;66189;49.000;11.640;2023-04-30T07:28:24;96316.22;;;11.93;66.74
31775;BME280;66189;49.000;11.640;2023-04-30T07:30:25;96316.47;;;11.87;65.43
31775;BME280;66189;49.000;11.640;2023-04-30T07:32:25;96314.84;;;12.02;66.02
31775;BME280;66189;49.000;11.640;2023-04-30T07:34:26;96328.69;;;12.01;63.84
31775;BME280;66189;49.000;11.640;2023-04-30T07:36:27;96321.88;;;11.87;61.61
31775;BME280;66189;49.000;11.640;2023-04-30T07:38:27;96319.16;;;12.07;62.27
31775;BME280;66189;49.000;11.640;2023-04-30T07:40:28;96325.41;;;11.91;61.96
31775;BME280;66189;49.000;11.640;2023-04-30T07:42:29;96324.69;;;12.14;62.87
31775;BME280;66189;49.000;11.640;2023-04-30T07:44:29;96317.28;;;12.31;62.22
31775;BME280;66189;49.000;11.640;2023-04-30T07:46:30;96328.59;;;12.40;64.16
31775;BME280;66189;49.000;11.640;2023-04-30T07:48:30;96322.97;;;12.49;63.13
31775;BME280;66189;49.000;11.640;2023-04-30T07:50:30;96324.34;;;12.62;61.08
31775;BME280;66189;49.000;11.640;2023-04-30T07:52:33;96321.44;;;12.74;61.50
31775;BME280;66189;49.000;11.640;2023-04-30T07:54:33;96318.78;;;12.78;60.74
31775;BME280;66189;49.000;11.640;2023-04-30T07:56:35;96322.22;;;12.75;59.92
31775;BME280;66189;49.000;11.640;2023-04-30T07:58:36;96328.47;;;12.79;58.57
31775;BME280;66189;49.000;11.640;2023-04-30T08:00:36;96319.31;;;12.87;60.58
31775;BME280;66189;49.000;11.640;2023-04-30T08:02:36;96321.09;;;12.76;57.01
31775;BME280;66189;49.000;11.640;2023-04-30T08:04:36;96327.38;;;12.84;55.55
31775;BME280;66189;49.000;11.640;2023-04-30T08:06:37;96324.59;;;13.03;59.31
31775;BME280;66189;49.000;11.640;2023-04-30T08:08:37;96326.09;;;13.58;59.08
31775;BME280;66189;49.000;11.640;2023-04-30T08:10:38;96330.19;;;13.78;57.40
31775;BME280;66189;49.000;11.640;2023-04-30T08:12:40;96329.56;;;13.92;58.05
31775;BME280;66189;49.000;11.640;2023-04-30T08:14:41;96332.56;;;13.49;56.36
31775;BME280;66189;49.000;11.640;2023-04-30T08:16:41;96327.53;;;13.21;56.45
31775;BME280;66189;49.000;11.640;2023-04-30T08:18:41;96333.34;;;13.23;57.98
31775;BME280;66189;49.000;11.640;2023-04-30T08:20:43;96334.31;;;13.65;58.80
31775;BME280;66189;49.000;11.640;2023-04-30T08:22:44;96336.28;;;13.38;55.71
31775;BME280;66189;49.000;11.640;2023-04-30T08:24:44;96332.22;;;13.24;54.63
31775;BME280;66189;49.000;11.640;2023-04-30T08:26:44;96332.16;;;12.94;56.28
31775;BME280;66189;49.000;11.640;2023-04-30T08:28:45;96329.38;;;13.13;57.56
31775;BME280;66189;49.000;11.640;2023-04-30T08:30:45;96323.69;;;13.49;55.68
31775;BME280;66189;49.000;11.640;2023-04-30T08:32:45;96325.47;;;13.38;53.65
31775;BME280;66189;49.000;11.640;2023-04-30T08:34:46;96328.84;;;13.61;53.17
31775;BME280;66189;49.000;11.640;2023-04-30T08:36:46;96319.59;;;13.62;54.92
31775;BME280;66189;49.000;11.640;2023-04-30T08:38:46;96326.78;;;13.51;53.14
31775;BME280;66189;49.000;11.640;2023-04-30T08:41:00;96331.91;;;13.60;55.07
31775;BME280;66189;49.000;11.640;2023-04-30T08:43:04;96325.41;;;13.34;53.86
31775;BME280;66189;49.000;11.640;2023-04-30T08:45:05;96328.06;;;13.04;56.90
31775;BME280;66189;49.000;11.640;2023-04-30T08:47:09;96330.06;;;12.84;57.61
31775;BME280;66189;49.000;11.640;2023-04-30T08:49:12;96330.75;;;12.77;57.27
31775;BME280;66189;49.000;11.640;2023-04-30T08:51:12;96330.28;;;12.48;58.26
31775;BME280;66189;49.000;11.640;2023-04-30T08:53:13;96341.97;;;12.33;59.88
31775;BME280;66189;49.000;11.640;2023-04-30T08:55:14;96346.22;;;12.34;58.70
31775;BME280;66189;49.000;11.640;2023-04-30T08:57:15;96341.59;;;12.34;60.53
31775;BME280;66189;49.000;11.640;2023-04-30T08:59:15;96338.31;;;12.21;59.98
31775;BME280;66189;49.000;11.640;2023-04-30T09:01:15;96342.25;;;12.27;59.72
31775;BME280;66189;49.000;11.640;2023-04-30T09:03:16;96347.16;;;12.22;60.43
31775;BME280;66189;49.000;11.640;2023-04-30T09:05:16;96338.50;;;12.55;60.34
31775;BME280;66189;49.000;11.640;2023-04-30T09:07:17;96337.88;;;12.66;59.11
31775;BME280;66189;49.000;11.640;2023-04-30T09:09:17;96335.53;;;12.87;56.98
31775;BME280;66189;49.000;11.640;2023-04-30T09:11:21;96339.38;;;12.86;56.56
31775;BME280;66189;49.000;11.640;2023-04-30T09:13:22;96338.28;;;12.91;56.85
31775;BME280;66189;49.000;11.640;2023-04-30T09:15:22;96342.97;;;12.94;56.58
31775;BME280;66189;49.000;11.640;2023-04-30T09:17:22;96336.47;;;12.98;56.11
31775;BME280;66189;49.000;11.640;2023-04-30T09:19:27;96331.97;;;12.56;57.40
31775;BME280;66189;49.000;11.640;2023-04-30T09:21:34;96338.72;;;12.70;57.40
31775;BME280;66189;49.000;11.640;2023-04-30T09:23:35;96339.16;;;12.49;58.21
31775;BME280;66189;49.000;11.640;2023-04-30T09:25:39;96346.34;;;12.18;57.65
31775;BME280;66189;49.000;11.640;2023-04-30T09:27:40;96342.31;;;12.31;57.30
31775;BME280;66189;49.000;11.640;2023-04-30T09:29:40;96346.59;;;12.32;57.47
31775;BME280;66189;49.000;11.640;2023-04-30T09:31:42;96347.16;;;12.22;58.97
31775;BME280;66189;49.000;11.640;2023-04-30T09:33:46;96346.53;;;12.29;59.34
31775;BME280;66189;49.000;11.640;2023-04-30T09:35:46;96346.63;;;12.36;59.59
31775;BME280;66189;49.000;11.640;2023-04-30T09:37:46;96348.63;;;12.39;59.20
31775;BME280;66189;49.000;11.640;2023-04-30T09:39:48;96346.72;;;12.39;59.72
31775;BME280;66189;49.000;11.640;2023-04-30T09:41:51;96345.50;;;12.60;60.36
31775;BME280;66189;49.000;11.640;2023-04-30T09:43:52;96348.22;;;12.37;57.02
31775;BME280;66189;49.000;11.640;2023-04-30T09:45:52;96343.97;;;12.59;58.50
31775;BME280;66189;49.000;11.640;2023-04-30T09:47:53;96344.84;;;12.67;58.55
31775;BME280;66189;49.000;11.640;2023-04-30T09:49:53;96346.53;;;12.52;57.40
31775;BME280;66189;49.000;11.640;2023-04-30T09:51:54;96344.97;;;12.51;57.96
31775;BME280;66189;49.000;11.640;2023-04-30T09:53:55;96340.78;;;12.53;57.66
31775;BME280;66189;49.000;11.640;2023-04-30T09:55:55;96341.38;;;12.43;57.95
31775;BME280;66189;49.000;11.640;2023-04-30T09:57:57;96339.84;;;12.42;57.28
31775;BME280;66189;49.000;11.640;2023-04-30T09:59:58;96335.34;;;12.50;56.39
31775;BME280;66189;49.000;11.640;2023-04-30T10:02:00;96337.75;;;12.58;57.00
31775;BME280;66189;49.000;11.640;2023-04-30T10:04:00;96336.59;;;12.83;57.30
31775;BME280;66189;49.000;11.640;2023-04-30T10:06:01;96334.53;;;12.99;57.22
31775;BME280;66189;49.000;11.640;2023-04-30T10:08:03;96341.16;;;13.02;57.73
31775;BME280;66189;49.000;11.640;2023-04-30T10:10:07;96332.44;;;13.12;57.84
31775;BME280;66189;49.000;11.640;2023-04-30T10:12:12;96335.34;;;13.30;56.27
31775;BME280;66189;49.000;11.640;2023-04-30T10:14:13;96340.34;;;13.28;54.85
31775;BME280;66189;49.000;11.640;2023-04-30T10:18:38;96336.69;;;13.40;52.90
31775;BME280;66189;49.000;11.640;2023-04-30T10:20:41;96332.66;;;13.57;54.55
31775;BME280;66189;49.000;11.640;2023-04-30T10:22:44;96331.00;;;13.48;55.79
31775;BME280;66189;49.000;11.640;2023-04-30T10:24:46;96327.91;;;13.80;55.13
31775;BME280;66189;49.000;11.640;2023-04-30T10:26:47;96328.66;;;13.77;53.39
31775;BME280;66189;49.000;11.640;2023-04-30T10:28:49;96325.84;;;14.04;53.53
31775;BME280;66189;49.000;11.640;2023-04-30T10:30:49;96323.41;;;14.29;54.57
31775;BME280;66189;49.000;11.640;2023-04-30T10:32:54;96320.53;;;14.15;53.79
31775;BME280;66189;49.000;11.640;2023-04-30T10:35:21;96327.44;;;14.09;52.85
31775;BME280;66189;49.000;11.640;2023-04-30T10:37:27;96315.56;;;14.17;53.82
31775;BME280;66189;49.000;11.640;2023-04-30T10:39:30;96319.31;;;14.50;53.76
31775;BME280;66189;49.000;11.640;2023-04-30T10:41:31;96320.22;;;14.61;53.29
31775;BME280;66189;49.000;11.640;2023-04-30T10:43:32;96311.69;;;14.59;51.79
31775;BME280;66189;49.000;11.640;2023-04-30T10:45:35;96306.44;;;14.81;52.20
31775;BME280;66189;49.000;11.640;2023-04-30T10:47:41;96313.97;;;14.57;51.43
31775;BME280;66189;49.000;11.640;2023-04-30T10:49:44;96309.94;;;14.36;52.66